createdAt,value
2023-05-16T00:02:08.960Z,2.55
2023-05-16T00:04:37.477Z,2.83
2023-05-16T00:07:06.809Z,3.83
2023-05-16T00:09:34.608Z,2.92
2023-05-16T00:12:02.514Z,3.50
2023-05-16T00:14:30.315Z,2.58
2023-05-16T00:16:59.287Z,3.88
2023-05-16T00:19:28.036Z,2.80
2023-05-16T00:21:55.796Z,2.58
2023-05-16T00:24:25.130Z,4.15
2023-05-16T00:26:52.894Z,2.42
2023-05-16T00:29:20.652Z,2.10
2023-05-16T00:31:48.453Z,2.33
2023-05-16T00:34:16.430Z,4.43
2023-05-16T00:36:44.545Z,2.88
2023-05-16T00:39:12.821Z,2.70
2023-05-16T00:41:42.149Z,4.57
2023-05-16T00:44:09.946Z,2.92
2023-05-16T00:46:37.820Z,2.85
2023-05-16T00:49:06.248Z,3.28
2023-05-16T00:51:34.196Z,2.63
2023-05-16T00:54:02.185Z,2.83
2023-05-16T00:56:30.168Z,2.85
2023-05-16T00:58:59.937Z,3.13
2023-05-16T01:01:29.728Z,2.83
2023-05-16T01:03:57.930Z,2.42
2023-05-16T01:06:25.955Z,2.75
2023-05-16T01:08:53.717Z,2.67
2023-05-16T01:11:28.323Z,3.45
2023-05-16T01:14:08.619Z,2.58
2023-05-16T01:16:41.611Z,2.63
2023-05-16T01:19:20.684Z,2.83
2023-05-16T01:21:51.372Z,2.97
2023-05-16T01:24:28.487Z,2.70
2023-05-16T01:26:59.644Z,3.40
2023-05-16T01:29:27.734Z,2.03
2023-05-16T01:31:55.621Z,2.17
2023-05-16T01:34:24.509Z,2.35
2023-05-16T01:37:00.627Z,2.42
2023-05-16T01:39:34.845Z,2.88
2023-05-16T01:42:07.226Z,2.30
2023-05-16T01:44:39.945Z,2.45
2023-05-16T01:47:13.034Z,2.55
2023-05-16T01:49:47.658Z,2.80
2023-05-16T01:52:20.613Z,2.08
2023-05-16T01:54:50.429Z,2.90
2023-05-16T01:57:21.534Z,2.47
2023-05-16T01:59:50.105Z,2.72
2023-05-16T02:02:19.542Z,2.83
2023-05-16T02:04:47.810Z,2.45
2023-05-16T02:07:16.175Z,3.40
2023-05-16T02:09:43.936Z,2.78
2023-05-16T02:12:11.723Z,3.38
2023-05-16T02:14:40.893Z,2.47
2023-05-16T02:17:09.089Z,2.70
2023-05-16T02:19:36.975Z,2.70
2023-05-16T02:22:04.838Z,2.67
2023-05-16T02:24:32.608Z,2.60
2023-05-16T02:27:00.434Z,3.00
2023-05-16T02:29:28.197Z,2.47
2023-05-16T02:31:57.364Z,2.58
2023-05-16T02:34:25.195Z,2.80
2023-05-16T02:36:52.940Z,1.88
2023-05-16T02:39:20.687Z,2.10
2023-05-16T02:41:48.494Z,2.28
2023-05-16T02:44:16.277Z,3.13
2023-05-16T02:46:44.294Z,2.30
2023-05-16T02:49:13.488Z,2.90
2023-05-16T02:51:41.277Z,3.38
2023-05-16T02:54:09.955Z,2.53
2023-05-16T02:56:37.981Z,2.35
2023-05-16T02:59:06.374Z,2.47
2023-05-16T03:01:34.819Z,4.00
2023-05-16T03:04:02.891Z,2.20
2023-05-16T03:06:33.139Z,2.42
2023-05-16T03:09:01.335Z,2.28
2023-05-16T03:11:29.170Z,3.03
2023-05-16T03:13:57.098Z,2.53
2023-05-16T03:16:24.899Z,2.08
2023-05-16T03:18:52.926Z,2.00
2023-05-16T03:21:20.685Z,2.47
2023-05-16T03:23:50.255Z,2.67
2023-05-16T03:26:18.097Z,2.15
2023-05-16T03:28:46.103Z,2.30
2023-05-16T03:31:13.912Z,2.17
2023-05-16T03:33:41.994Z,2.60
2023-05-16T03:36:10.617Z,3.25
2023-05-16T03:38:38.484Z,2.47
2023-05-16T03:41:07.681Z,3.53
2023-05-16T03:43:35.427Z,2.33
2023-05-16T03:46:03.232Z,1.95
2023-05-16T03:48:31.039Z,2.92
2023-05-16T03:50:58.799Z,2.65
2023-05-16T03:53:26.716Z,2.40
2023-05-16T03:55:54.535Z,2.25
2023-05-16T03:58:23.723Z,2.60
2023-05-16T04:00:51.646Z,3.03
2023-05-16T04:03:19.477Z,2.88
2023-05-16T04:05:47.405Z,2.22
2023-05-16T04:08:15.611Z,2.13
2023-05-16T04:10:43.349Z,2.10
2023-05-16T04:13:11.136Z,2.33
2023-05-16T04:15:40.553Z,2.25
2023-05-16T04:18:08.422Z,2.05
2023-05-16T04:20:36.740Z,3.63
2023-05-16T04:23:04.672Z,2.63
2023-05-16T04:25:32.750Z,2.15
2023-05-16T04:28:02.187Z,4.45
2023-05-16T04:30:29.957Z,2.60
2023-05-16T04:32:59.723Z,2.50
2023-05-16T04:35:28.350Z,1.95
2023-05-16T04:37:56.321Z,2.63
2023-05-16T04:40:25.192Z,2.90
2023-05-16T04:42:54.588Z,2.10
2023-05-16T04:45:22.497Z,2.80
2023-05-16T04:47:51.094Z,3.38
2023-05-16T04:50:20.618Z,2.10
2023-05-16T04:52:48.350Z,2.13
2023-05-16T04:55:16.527Z,2.28
2023-05-16T04:57:44.574Z,2.65
2023-05-16T05:00:13.720Z,7.53
2023-05-16T05:02:41.792Z,3.38
2023-05-16T05:05:10.608Z,2.42
2023-05-16T05:07:40.958Z,2.78
2023-05-16T05:10:09.673Z,2.50
2023-05-16T05:12:37.438Z,2.40
2023-05-16T05:15:06.519Z,1.88
2023-05-16T05:17:34.359Z,2.22
2023-05-16T05:20:03.293Z,2.30
2023-05-16T05:22:31.264Z,3.53
2023-05-16T05:25:00.386Z,2.10
2023-05-16T05:27:28.739Z,2.53
2023-05-16T05:29:56.490Z,2.30
2023-05-16T05:32:24.334Z,2.95
2023-05-16T05:34:52.636Z,3.40
2023-05-16T05:37:20.550Z,3.35
2023-05-16T05:39:48.542Z,2.28
2023-05-16T05:42:17.699Z,2.40
2023-05-16T05:44:45.750Z,2.75
2023-05-16T05:47:13.866Z,1.90
2023-05-16T05:49:42.003Z,1.52
2023-05-16T05:52:09.825Z,3.17
2023-05-16T05:54:37.695Z,3.17
2023-05-16T05:57:05.792Z,2.35
2023-05-16T05:59:35.190Z,2.50
2023-05-16T06:02:03.362Z,1.85
2023-05-16T06:04:31.173Z,2.20
2023-05-16T06:06:59.199Z,2.10
2023-05-16T06:09:27.107Z,2.22
2023-05-16T06:11:54.948Z,2.33
2023-05-16T06:14:22.913Z,2.10
2023-05-16T06:16:52.098Z,3.38
2023-05-16T06:19:20.045Z,2.17
2023-05-16T06:21:48.046Z,1.63
2023-05-16T06:24:16.127Z,1.98
2023-05-16T06:26:46.218Z,1.75
2023-05-16T06:29:14.004Z,2.63
2023-05-16T06:31:41.832Z,2.33
2023-05-16T06:34:11.280Z,1.55
2023-05-16T06:36:39.183Z,1.45
2023-05-16T06:39:07.567Z,2.63
2023-05-16T06:41:35.350Z,1.75
2023-05-16T06:44:03.219Z,1.90
2023-05-16T06:46:31.220Z,1.48
2023-05-16T06:48:59.129Z,1.77
2023-05-16T06:51:28.354Z,1.92
2023-05-16T06:53:56.325Z,1.67
2023-05-16T06:56:24.132Z,1.60
2023-05-16T06:58:51.983Z,2.92
2023-05-16T07:01:19.903Z,1.48
2023-05-16T07:03:48.001Z,2.00
2023-05-16T07:06:15.987Z,1.77
2023-05-16T07:08:45.229Z,1.38
2023-05-16T07:11:13.085Z,1.30
2023-05-16T07:13:40.997Z,1.85
2023-05-16T07:16:08.946Z,1.25
2023-05-16T07:18:36.905Z,1.50
2023-05-16T07:21:04.962Z,1.33
2023-05-16T07:23:32.965Z,1.92
2023-05-16T07:26:03.834Z,1.17
2023-05-16T07:28:31.681Z,1.65
2023-05-16T07:31:00.475Z,2.08
2023-05-16T07:33:28.575Z,1.70
2023-05-16T07:36:08.047Z,1.77
2023-05-16T07:38:43.890Z,2.45
2023-05-16T07:41:13.222Z,1.75
2023-05-16T07:43:41.313Z,1.30
2023-05-16T07:46:09.246Z,1.23
2023-05-16T07:48:37.159Z,1.48
2023-05-16T07:51:05.213Z,2.03
2023-05-16T07:53:33.220Z,2.58
2023-05-16T07:56:01.413Z,1.42
2023-05-16T07:58:30.892Z,1.73
2023-05-16T08:00:58.887Z,1.38
2023-05-16T08:03:27.048Z,1.70
2023-05-16T08:05:55.033Z,1.45
2023-05-16T08:08:22.940Z,2.13
2023-05-16T08:10:50.946Z,1.50
2023-05-16T08:13:18.960Z,1.40
2023-05-16T08:15:48.250Z,1.60
2023-05-16T08:18:18.788Z,1.40
2023-05-16T08:20:47.893Z,1.63
2023-05-16T08:23:15.906Z,1.70
2023-05-16T08:25:44.040Z,1.73
2023-05-16T08:28:11.937Z,1.55
2023-05-16T08:30:42.439Z,1.25
2023-05-16T08:33:12.309Z,1.23
2023-05-16T08:35:43.988Z,1.90
2023-05-16T08:38:12.098Z,1.10
2023-05-16T08:40:42.829Z,1.45
2023-05-16T08:43:10.758Z,1.23
2023-05-16T08:45:38.816Z,1.50
2023-05-16T08:48:10.390Z,1.60
2023-05-16T08:50:39.957Z,1.60
2023-05-16T08:53:09.642Z,1.60
2023-05-16T08:55:38.146Z,1.35
2023-05-16T08:58:06.060Z,1.50
2023-05-16T09:00:34.111Z,1.65
2023-05-16T09:03:02.519Z,1.17
2023-05-16T09:05:31.219Z,1.40
2023-05-16T09:08:00.854Z,1.42
2023-05-16T09:10:28.704Z,2.03
2023-05-16T09:12:56.724Z,1.63
2023-05-16T09:15:24.527Z,1.23
2023-05-16T09:17:52.732Z,1.40
2023-05-16T09:20:21.866Z,2.00
2023-05-16T09:22:56.334Z,1.38
2023-05-16T09:25:31.002Z,1.45
2023-05-16T09:28:01.697Z,1.17
2023-05-16T09:30:31.658Z,2.10
2023-05-16T09:33:00.413Z,1.42
2023-05-16T09:35:42.952Z,1.30
2023-05-16T09:40:44.540Z,2.17
2023-05-16T09:43:16.790Z,1.50
2023-05-16T09:45:47.836Z,1.40
2023-05-16T09:48:17.049Z,1.40
2023-05-16T09:50:49.870Z,2.58
2023-05-16T09:53:17.797Z,1.17
2023-05-16T09:55:47.051Z,0.90
2023-05-16T09:58:18.816Z,2.13
2023-05-16T10:00:47.116Z,1.67
2023-05-16T10:03:16.702Z,1.35
2023-05-16T10:05:44.829Z,1.52
2023-05-16T10:08:13.592Z,1.13
2023-05-16T10:10:44.106Z,1.27
2023-05-16T10:13:14.372Z,1.27
2023-05-16T10:15:46.672Z,1.80
2023-05-16T10:18:15.784Z,1.10
2023-05-16T10:20:46.589Z,2.17
2023-05-16T10:23:18.956Z,1.42
2023-05-16T10:25:48.000Z,1.50
2023-05-16T10:28:17.945Z,1.50
2023-05-16T10:30:47.676Z,1.20
2023-05-16T10:33:20.294Z,1.20
2023-05-16T10:35:48.816Z,1.10
2023-05-16T10:38:19.648Z,1.65
2023-05-16T10:40:49.276Z,1.23
2023-05-16T10:43:26.914Z,1.20
2023-05-16T10:45:58.873Z,1.13
2023-05-16T10:48:31.533Z,1.35
2023-05-16T10:50:59.518Z,1.10
2023-05-16T10:53:31.936Z,1.58
2023-05-16T10:56:08.984Z,4.07
2023-05-16T10:58:48.813Z,1.20
2023-05-16T11:01:24.530Z,1.15
2023-05-16T11:04:06.915Z,4.03
2023-05-16T11:06:36.150Z,1.25
2023-05-16T11:09:10.140Z,1.42
2023-05-16T11:11:49.057Z,1.48
2023-05-16T11:14:23.661Z,1.33
2023-05-16T11:16:52.916Z,1.52
2023-05-16T11:19:32.153Z,1.42
2023-05-16T11:22:07.412Z,1.00
2023-05-16T11:24:36.350Z,1.48
2023-05-16T11:27:07.944Z,1.40
2023-05-16T11:29:37.751Z,1.50
2023-05-16T11:32:06.850Z,1.20
2023-05-16T11:34:39.658Z,1.40
2023-05-16T11:37:07.803Z,1.23
2023-05-16T11:39:37.815Z,1.40
2023-05-16T11:42:06.020Z,1.08
2023-05-16T11:44:33.938Z,1.23
2023-05-16T11:47:03.981Z,1.08
2023-05-16T11:49:32.343Z,2.05
2023-05-16T11:52:00.363Z,1.10
2023-05-16T11:54:28.472Z,1.25
2023-05-16T11:56:56.754Z,1.52
2023-05-16T11:59:25.502Z,1.50
2023-05-16T12:01:54.140Z,2.85
2023-05-16T12:04:24.299Z,1.35
2023-05-16T12:07:04.254Z,1.58
2023-05-16T12:09:32.176Z,1.35
2023-05-16T12:12:00.640Z,1.55
2023-05-16T12:14:28.655Z,1.20
2023-05-16T12:16:56.777Z,1.45
2023-05-16T12:19:26.481Z,1.52
2023-05-16T12:21:55.428Z,1.42
2023-05-16T12:24:23.379Z,1.45
2023-05-16T12:26:54.817Z,1.48
2023-05-16T12:29:25.186Z,1.30
2023-05-16T12:31:55.070Z,1.30
2023-05-16T12:34:23.400Z,1.50
2023-05-16T12:37:02.059Z,1.50
2023-05-16T12:39:38.490Z,1.35
2023-05-16T12:42:07.437Z,1.80
2023-05-16T12:44:38.235Z,1.65
2023-05-16T12:47:13.507Z,1.30
2023-05-16T12:49:46.329Z,1.42
2023-05-16T12:52:20.701Z,1.27
2023-05-16T12:54:49.396Z,1.15
2023-05-16T12:57:17.207Z,2.45
2023-05-16T12:59:45.121Z,1.20
2023-05-16T13:02:13.088Z,1.33
2023-05-16T13:04:41.727Z,1.50
2023-05-16T13:07:09.591Z,1.90
2023-05-16T13:09:38.834Z,1.13
2023-05-16T13:12:07.568Z,1.90
2023-05-16T13:14:35.444Z,1.35
2023-05-16T13:17:04.611Z,1.33
2023-05-16T13:19:32.684Z,1.23
2023-05-16T13:22:00.632Z,1.20
2023-05-16T13:24:28.725Z,1.50
2023-05-16T13:26:59.603Z,1.45
2023-05-16T13:29:27.657Z,1.35
2023-05-16T13:31:55.838Z,1.15
2023-05-16T13:34:23.857Z,1.15
2023-05-16T13:36:54.373Z,1.58
2023-05-16T13:39:23.325Z,1.25
2023-05-16T13:41:51.578Z,0.95
2023-05-16T13:44:22.533Z,1.55
2023-05-16T13:46:50.746Z,1.30
2023-05-16T13:49:18.792Z,1.65
2023-05-16T13:51:47.501Z,1.23
2023-05-16T13:54:15.330Z,1.20
2023-05-16T13:56:43.350Z,0.90
2023-05-16T13:59:14.234Z,1.02
2023-05-16T14:01:47.755Z,1.40
2023-05-16T14:04:15.970Z,1.13
2023-05-16T14:06:43.883Z,1.77
2023-05-16T14:09:13.232Z,1.20
2023-05-16T14:11:41.131Z,1.80
2023-05-16T14:14:08.975Z,1.50
2023-05-16T14:16:37.371Z,1.00
2023-05-16T14:19:06.707Z,1.27
2023-05-16T14:21:34.682Z,1.50
2023-05-16T14:24:02.655Z,1.10
2023-05-16T14:26:32.258Z,1.27
2023-05-16T14:29:00.918Z,1.30
2023-05-16T14:31:28.908Z,1.20
2023-05-16T14:33:57.124Z,0.80
2023-05-16T14:36:26.443Z,1.05
2023-05-16T14:38:54.250Z,1.48
2023-05-16T14:41:22.856Z,1.48
2023-05-16T14:43:51.040Z,1.40
2023-05-16T14:46:18.970Z,1.40
2023-05-16T14:48:47.011Z,1.08
2023-05-16T14:51:15.209Z,1.30
2023-05-16T14:53:46.936Z,1.10
2023-05-16T14:56:15.016Z,2.30
2023-05-16T14:58:43.073Z,1.17
2023-05-16T15:01:11.137Z,1.42
2023-05-16T15:06:10.543Z,1.23
2023-05-16T15:08:38.832Z,1.35
2023-05-16T15:11:08.107Z,1.40
2023-05-16T15:13:35.938Z,0.90
2023-05-16T15:16:04.247Z,1.55
2023-05-16T15:18:32.125Z,1.52
2023-05-16T15:21:00.127Z,1.40
2023-05-16T15:23:28.350Z,1.67
2023-05-16T15:25:56.263Z,1.30
2023-05-16T15:28:25.449Z,1.40
2023-05-16T15:30:53.473Z,0.93
2023-05-16T15:33:21.304Z,1.20
2023-05-16T15:35:49.312Z,1.20
2023-05-16T15:38:17.346Z,0.98
2023-05-16T15:40:45.151Z,1.05
2023-05-16T15:43:12.940Z,1.10
2023-05-16T15:45:44.947Z,1.17
2023-05-16T15:48:13.086Z,1.17
2023-05-16T15:50:41.930Z,1.10
2023-05-16T15:53:09.841Z,1.30
2023-05-16T15:55:38.108Z,1.30
2023-05-16T15:58:06.224Z,1.15
2023-05-16T16:00:34.143Z,1.70
2023-05-16T16:03:03.423Z,1.15
2023-05-16T16:05:31.269Z,1.75
2023-05-16T16:07:59.104Z,1.40
2023-05-16T16:10:27.281Z,1.80
2023-05-16T16:13:01.718Z,1.60
2023-05-16T16:15:32.820Z,1.60
2023-05-16T16:18:03.028Z,1.90
2023-05-16T16:20:31.010Z,2.00
2023-05-16T16:22:59.079Z,2.10
2023-05-16T16:25:27.313Z,1.90
2023-05-16T16:27:56.058Z,2.28
2023-05-16T16:30:23.961Z,1.80
2023-05-16T16:32:52.076Z,2.30
2023-05-16T16:35:22.512Z,2.20
2023-05-16T16:38:02.475Z,2.95
2023-05-16T16:40:34.439Z,1.70
2023-05-16T16:43:02.585Z,2.30
2023-05-16T16:45:30.808Z,2.05
2023-05-16T16:47:59.045Z,2.35
2023-05-16T16:50:28.248Z,1.77
2023-05-16T16:52:56.185Z,1.98
2023-05-16T16:55:24.002Z,2.22
2023-05-16T16:57:51.882Z,2.20
2023-05-16T17:00:20.806Z,2.00
2023-05-16T17:02:48.747Z,2.17
2023-05-16T17:05:16.664Z,2.95
2023-05-16T17:07:45.924Z,2.17
2023-05-16T17:10:13.812Z,2.15
2023-05-16T17:12:48.924Z,1.88
2023-05-16T17:15:17.418Z,2.55
2023-05-16T17:17:45.628Z,2.65
2023-05-16T17:20:14.440Z,2.22
2023-05-16T17:22:42.242Z,2.33
2023-05-16T17:25:11.818Z,2.22
2023-05-16T17:27:40.686Z,2.08
2023-05-16T17:30:10.536Z,2.15
2023-05-16T17:32:40.015Z,1.85
2023-05-16T17:35:08.347Z,1.75
2023-05-16T17:37:36.206Z,2.13
2023-05-16T17:40:05.869Z,2.33
2023-05-16T17:42:35.172Z,2.65
2023-05-16T17:45:04.962Z,1.90
2023-05-16T17:47:33.143Z,5.25
2023-05-16T17:50:01.216Z,1.58
2023-05-16T17:52:29.406Z,2.20
2023-05-16T17:54:57.299Z,1.65
2023-05-16T17:57:25.346Z,1.77
2023-05-16T17:59:54.735Z,3.05
2023-05-16T18:02:22.638Z,1.88
2023-05-16T18:04:50.483Z,1.55
2023-05-16T18:07:18.432Z,1.58
2023-05-16T18:09:46.389Z,2.03
2023-05-16T18:12:14.989Z,2.63
2023-05-16T18:14:45.260Z,1.80
2023-05-16T18:17:14.811Z,2.10
2023-05-16T18:19:42.906Z,1.70
2023-05-16T18:22:12.437Z,2.78
2023-05-16T18:24:40.752Z,2.03
2023-05-16T18:27:08.546Z,2.00
2023-05-16T18:29:36.311Z,1.50
2023-05-16T18:32:04.336Z,2.35
2023-05-16T18:34:34.085Z,2.03
2023-05-16T18:37:02.017Z,2.00
2023-05-16T18:39:29.969Z,1.77
2023-05-16T18:41:57.974Z,2.92
2023-05-16T18:44:25.766Z,1.60
2023-05-16T18:46:53.613Z,2.22
2023-05-16T18:49:21.697Z,2.25
2023-05-16T18:51:51.261Z,2.47
2023-05-16T18:54:20.607Z,1.70
2023-05-16T18:56:49.472Z,2.22
2023-05-16T18:59:18.784Z,2.42
2023-05-16T19:01:47.206Z,2.75
2023-05-16T19:04:15.225Z,2.03
2023-05-16T19:06:43.165Z,1.90
2023-05-16T19:09:12.371Z,4.30
2023-05-16T19:11:40.310Z,2.28
2023-05-16T19:14:08.721Z,2.80
2023-05-16T19:16:36.524Z,2.53
2023-05-16T19:19:05.298Z,1.88
2023-05-16T19:21:33.236Z,1.95
2023-05-16T19:24:01.239Z,2.22
2023-05-16T19:26:31.014Z,1.65
2023-05-16T19:28:59.142Z,2.47
2023-05-16T19:31:26.999Z,3.35
2023-05-16T19:33:54.979Z,2.47
2023-05-16T19:36:22.941Z,2.72
2023-05-16T19:38:50.771Z,2.45
2023-05-16T19:41:18.633Z,2.22
2023-05-16T19:43:47.843Z,2.40
2023-05-16T19:46:15.642Z,2.45
2023-05-16T19:48:43.452Z,4.10
2023-05-16T19:51:11.414Z,2.75
2023-05-16T19:53:39.209Z,2.38
2023-05-16T19:56:07.081Z,2.42
2023-05-16T19:58:34.941Z,2.58
2023-05-16T20:01:04.350Z,1.88
2023-05-16T20:03:32.575Z,2.28
2023-05-16T20:06:00.476Z,2.10
2023-05-16T20:08:28.457Z,4.45
2023-05-16T20:10:57.324Z,2.00
2023-05-16T20:13:26.275Z,2.22
2023-05-16T20:15:54.103Z,2.72
2023-05-16T20:18:23.679Z,2.08
2023-05-16T20:20:51.513Z,4.13
2023-05-16T20:23:19.578Z,2.17
2023-05-16T20:25:47.442Z,3.05
2023-05-16T20:28:15.325Z,2.63
2023-05-16T20:30:43.262Z,2.90
2023-05-16T20:33:11.225Z,2.00
2023-05-16T20:35:40.528Z,2.92
2023-05-16T20:38:08.748Z,2.28
2023-05-16T20:40:36.915Z,2.30
2023-05-16T20:43:04.826Z,3.25
2023-05-16T20:45:32.618Z,2.35
2023-05-16T20:48:00.705Z,2.40
2023-05-16T20:50:28.704Z,2.42
2023-05-16T20:52:58.060Z,2.35
2023-05-16T20:55:26.438Z,2.28
2023-05-16T20:57:54.447Z,2.90
2023-05-16T21:00:22.456Z,2.97
2023-05-16T21:02:50.320Z,5.50
2023-05-16T21:05:25.188Z,2.63
2023-05-16T21:07:53.595Z,2.88
2023-05-16T21:10:22.793Z,2.50
2023-05-16T21:12:50.828Z,2.97
2023-05-16T21:15:19.883Z,3.85
2023-05-16T21:17:49.691Z,2.63
2023-05-16T21:20:17.745Z,2.67
2023-05-16T21:22:45.657Z,3.03
2023-05-16T21:25:13.438Z,3.47
2023-05-16T21:27:44.321Z,3.42
2023-05-16T21:30:13.311Z,3.60
2023-05-16T21:32:41.250Z,3.13
2023-05-16T21:35:09.770Z,2.72
2023-05-16T21:37:37.641Z,3.00
2023-05-16T21:40:06.454Z,2.97
2023-05-16T21:42:34.366Z,3.10
2023-05-16T21:45:03.562Z,2.83
2023-05-16T21:47:34.435Z,3.75
2023-05-16T21:50:02.193Z,3.35
2023-05-16T21:52:30.120Z,2.67
2023-05-16T21:54:57.953Z,2.67
2023-05-16T21:57:25.814Z,2.85
2023-05-16T21:59:53.667Z,3.00
2023-05-16T22:02:23.501Z,3.05
2023-05-16T22:04:52.341Z,3.63
2023-05-16T22:07:20.518Z,3.00
2023-05-16T22:09:50.826Z,2.65
2023-05-16T22:12:21.662Z,3.03
2023-05-16T22:14:50.100Z,3.25
2023-05-16T22:17:19.276Z,2.75
2023-05-16T22:19:48.800Z,2.88
2023-05-16T22:22:16.966Z,3.08
2023-05-16T22:24:44.753Z,3.25
2023-05-16T22:27:12.574Z,4.32
2023-05-16T22:29:40.666Z,4.05
2023-05-16T22:32:09.295Z,3.22
2023-05-16T22:34:39.626Z,2.92
2023-05-16T22:37:09.588Z,3.42
2023-05-16T22:39:38.041Z,2.83
2023-05-16T22:42:06.551Z,2.70
2023-05-16T22:44:34.290Z,3.45
2023-05-16T22:47:02.068Z,3.10
2023-05-16T22:49:29.831Z,3.50
2023-05-16T22:51:57.604Z,3.40
2023-05-16T22:54:26.840Z,3.58
2023-05-16T22:56:54.762Z,3.85
2023-05-16T22:59:22.597Z,2.95
2023-05-16T23:01:50.476Z,3.00
2023-05-16T23:04:18.242Z,4.07
2023-05-16T23:06:46.097Z,3.35
2023-05-16T23:09:13.995Z,3.05
2023-05-16T23:11:43.224Z,3.72
2023-05-16T23:14:11.162Z,4.40
2023-05-16T23:16:38.966Z,3.53
2023-05-16T23:19:09.335Z,3.65
2023-05-16T23:21:37.586Z,3.63
2023-05-16T23:24:05.568Z,4.13
2023-05-16T23:26:33.341Z,2.97
2023-05-16T23:29:02.582Z,3.35
2023-05-16T23:31:30.671Z,3.53
2023-05-16T23:33:58.476Z,3.30
2023-05-16T23:36:26.351Z,3.55
2023-05-16T23:38:54.221Z,3.10
2023-05-16T23:41:22.117Z,3.38
2023-05-16T23:43:49.956Z,4.63
2023-05-16T23:46:19.139Z,3.30
2023-05-16T23:48:47.025Z,3.67
2023-05-16T23:51:14.822Z,3.78
2023-05-16T23:53:42.780Z,4.28
2023-05-16T23:56:10.654Z,3.90
2023-05-16T23:58:38.441Z,3.83
